sensor_id;sensor_type;location;lat;lon;timestamp;P1;durP1;ratioP1;P2;durP2;ratioP2
23632;SDS011;11993;48.748;9.166;2024-01-15T00:01:28;30.38;;;12.73;;
23632;SDS011;11993;48.748;9.166;2024-01-15T00:03:54;30.10;;;13.18;;
23632;SDS011;11993;48.748;9.166;2024-01-15T00:06:19;27.45;;;12.68;;
23632;SDS011;11993;48.748;9.166;2024-01-15T00:08:45;30.17;;;12.95;;
23632;SDS011;11993;48.748;9.166;2024-01-15T00:11:10;29.92;;;13.80;;
23632;SDS011;11993;48.748;9.166;2024-01-15T00:13:36;26.63;;;12.95;;
23632;SDS011;11993;48.748;9.166;2024-01-15T00:16:02;29.50;;;12.90;;
23632;SDS011;11993;48.748;9.166;2024-01-15T00:18:27;29.40;;;13.27;;
23632;SDS011;11993;48.748;9.166;2024-01-15T00:20:53;26.95;;;12.55;;
23632;SDS011;11993;48.748;9.166;2024-01-15T00:23:18;27.55;;;12.95;;
23632;SDS011;11993;48.748;9.166;2024-01-15T00:25:44;29.23;;;12.27;;
23632;SDS011;11993;48.748;9.166;2024-01-15T00:28:09;28.63;;;11.95;;
23632;SDS011;11993;48.748;9.166;2024-01-15T00:30:35;26.02;;;11.38;;
23632;SDS011;11993;48.748;9.166;2024-01-15T00:33:00;27.33;;;12.25;;
23632;SDS011;11993;48.748;9.166;2024-01-15T00:35:26;29.33;;;12.48;;
23632;SDS011;11993;48.748;9.166;2024-01-15T00:37:52;24.13;;;11.10;;
23632;SDS011;11993;48.748;9.166;2024-01-15T00:40:17;26.20;;;11.38;;
23632;SDS011;11993;48.748;9.166;2024-01-15T00:42:43;26.75;;;11.10;;
23632;SDS011;11993;48.748;9.166;2024-01-15T00:45:09;25.85;;;11.77;;
23632;SDS011;11993;48.748;9.166;2024-01-15T00:47:34;23.63;;;11.90;;
23632;SDS011;11993;48.748;9.166;2024-01-15T00:50:00;28.55;;;12.40;;
23632;SDS011;11993;48.748;9.166;2024-01-15T00:52:26;24.95;;;10.77;;
23632;SDS011;11993;48.748;9.166;2024-01-15T00:54:51;22.33;;;10.57;;
23632;SDS011;11993;48.748;9.166;2024-01-15T00:57:17;23.30;;;10.93;;
23632;SDS011;11993;48.748;9.166;2024-01-15T00:59:44;25.23;;;10.93;;
23632;SDS011;11993;48.748;9.166;2024-01-15T01:02:10;25.50;;;11.70;;
23632;SDS011;11993;48.748;9.166;2024-01-15T01:04:35;25.00;;;11.50;;
23632;SDS011;11993;48.748;9.166;2024-01-15T01:07:01;23.50;;;10.95;;
23632;SDS011;11993;48.748;9.166;2024-01-15T01:09:26;27.73;;;11.32;;
23632;SDS011;11993;48.748;9.166;2024-01-15T01:11:55;24.38;;;10.68;;
23632;SDS011;11993;48.748;9.166;2024-01-15T01:14:21;25.75;;;12.00;;
23632;SDS011;11993;48.748;9.166;2024-01-15T01:16:47;26.95;;;11.50;;
23632;SDS011;11993;48.748;9.166;2024-01-15T01:19:13;22.55;;;11.80;;
23632;SDS011;11993;48.748;9.166;2024-01-15T01:21:38;27.15;;;11.40;;
23632;SDS011;11993;48.748;9.166;2024-01-15T01:24:04;24.40;;;11.55;;
23632;SDS011;11993;48.748;9.166;2024-01-15T01:26:30;22.80;;;10.15;;
23632;SDS011;11993;48.748;9.166;2024-01-15T01:28:56;24.83;;;10.85;;
23632;SDS011;11993;48.748;9.166;2024-01-15T01:31:22;25.67;;;11.68;;
23632;SDS011;11993;48.748;9.166;2024-01-15T01:33:48;25.08;;;10.93;;
23632;SDS011;11993;48.748;9.166;2024-01-15T01:36:14;24.05;;;11.00;;
23632;SDS011;11993;48.748;9.166;2024-01-15T01:38:40;25.40;;;10.88;;
23632;SDS011;11993;48.748;9.166;2024-01-15T01:41:06;22.98;;;9.68;;
23632;SDS011;11993;48.748;9.166;2024-01-15T01:43:32;24.85;;;10.93;;
23632;SDS011;11993;48.748;9.166;2024-01-15T01:45:58;20.83;;;10.98;;
23632;SDS011;11993;48.748;9.166;2024-01-15T01:48:25;28.80;;;12.18;;
23632;SDS011;11993;48.748;9.166;2024-01-15T01:50:54;23.98;;;11.45;;
23632;SDS011;11993;48.748;9.166;2024-01-15T01:53:24;24.88;;;11.20;;
23632;SDS011;11993;48.748;9.166;2024-01-15T01:55:51;29.40;;;11.63;;
23632;SDS011;11993;48.748;9.166;2024-01-15T01:58:17;27.48;;;11.40;;
23632;SDS011;11993;48.748;9.166;2024-01-15T02:00:44;25.08;;;11.55;;
23632;SDS011;11993;48.748;9.166;2024-01-15T02:03:10;25.35;;;10.07;;
23632;SDS011;11993;48.748;9.166;2024-01-15T02:05:35;25.35;;;10.77;;
23632;SDS011;11993;48.748;9.166;2024-01-15T02:08:02;22.50;;;10.48;;
23632;SDS011;11993;48.748;9.166;2024-01-15T02:10:27;27.17;;;11.88;;
23632;SDS011;11993;48.748;9.166;2024-01-15T02:12:53;24.88;;;10.63;;
23632;SDS011;11993;48.748;9.166;2024-01-15T02:15:18;27.02;;;10.35;;
23632;SDS011;11993;48.748;9.166;2024-01-15T02:20:23;24.70;;;11.15;;
23632;SDS011;11993;48.748;9.166;2024-01-15T02:22:50;25.52;;;9.82;;
23632;SDS011;11993;48.748;9.166;2024-01-15T02:25:15;21.58;;;10.82;;
23632;SDS011;11993;48.748;9.166;2024-01-15T02:27:41;22.60;;;10.20;;
23632;SDS011;11993;48.748;9.166;2024-01-15T02:30:08;21.35;;;9.90;;
23632;SDS011;11993;48.748;9.166;2024-01-15T02:32:36;20.45;;;10.30;;
23632;SDS011;11993;48.748;9.166;2024-01-15T02:35:02;21.27;;;9.45;;
23632;SDS011;11993;48.748;9.166;2024-01-15T02:37:27;21.83;;;10.15;;
23632;SDS011;11993;48.748;9.166;2024-01-15T02:39:53;24.15;;;11.15;;
23632;SDS011;11993;48.748;9.166;2024-01-15T02:42:18;24.88;;;10.90;;
23632;SDS011;11993;48.748;9.166;2024-01-15T02:44:44;26.17;;;11.18;;
23632;SDS011;11993;48.748;9.166;2024-01-15T02:47:10;21.52;;;10.18;;
23632;SDS011;11993;48.748;9.166;2024-01-15T02:49:35;22.38;;;11.02;;
23632;SDS011;11993;48.748;9.166;2024-01-15T02:52:01;22.90;;;10.15;;
23632;SDS011;11993;48.748;9.166;2024-01-15T02:54:27;25.80;;;12.05;;
23632;SDS011;11993;48.748;9.166;2024-01-15T02:56:53;25.75;;;11.02;;
23632;SDS011;11993;48.748;9.166;2024-01-15T02:59:18;28.23;;;10.40;;
23632;SDS011;11993;48.748;9.166;2024-01-15T03:01:44;21.92;;;10.43;;
23632;SDS011;11993;48.748;9.166;2024-01-15T03:04:09;27.30;;;11.18;;
23632;SDS011;11993;48.748;9.166;2024-01-15T03:06:35;29.63;;;11.63;;
23632;SDS011;11993;48.748;9.166;2024-01-15T03:09:00;22.17;;;9.60;;
23632;SDS011;11993;48.748;9.166;2024-01-15T03:11:26;25.27;;;10.98;;
23632;SDS011;11993;48.748;9.166;2024-01-15T03:13:51;25.52;;;11.55;;
23632;SDS011;11993;48.748;9.166;2024-01-15T03:16:17;26.95;;;11.30;;
23632;SDS011;11993;48.748;9.166;2024-01-15T03:18:44;26.23;;;11.20;;
23632;SDS011;11993;48.748;9.166;2024-01-15T03:21:10;22.10;;;10.07;;
23632;SDS011;11993;48.748;9.166;2024-01-15T03:23:35;24.00;;;10.95;;
23632;SDS011;11993;48.748;9.166;2024-01-15T03:26:01;20.45;;;9.73;;
23632;SDS011;11993;48.748;9.166;2024-01-15T03:28:27;25.42;;;10.07;;
23632;SDS011;11993;48.748;9.166;2024-01-15T03:30:52;22.80;;;10.23;;
23632;SDS011;11993;48.748;9.166;2024-01-15T03:33:18;27.42;;;10.65;;
23632;SDS011;11993;48.748;9.166;2024-01-15T03:35:43;27.27;;;11.05;;
23632;SDS011;11993;48.748;9.166;2024-01-15T03:38:09;24.45;;;10.65;;
23632;SDS011;11993;48.748;9.166;2024-01-15T03:40:34;23.17;;;10.70;;
23632;SDS011;11993;48.748;9.166;2024-01-15T03:43:00;25.35;;;11.32;;
23632;SDS011;11993;48.748;9.166;2024-01-15T03:45:25;24.73;;;11.05;;
23632;SDS011;11993;48.748;9.166;2024-01-15T03:47:52;26.20;;;11.90;;
23632;SDS011;11993;48.748;9.166;2024-01-15T03:50:18;24.17;;;11.40;;
23632;SDS011;11993;48.748;9.166;2024-01-15T03:52:43;28.33;;;11.35;;
23632;SDS011;11993;48.748;9.166;2024-01-15T03:55:09;24.60;;;10.68;;
23632;SDS011;11993;48.748;9.166;2024-01-15T03:57:34;24.88;;;11.18;;
23632;SDS011;11993;48.748;9.166;2024-01-15T04:00:00;20.73;;;9.65;;
23632;SDS011;11993;48.748;9.166;2024-01-15T04:02:25;22.73;;;10.50;;
23632;SDS011;11993;48.748;9.166;2024-01-15T04:04:51;23.00;;;10.77;;
23632;SDS011;11993;48.748;9.166;2024-01-15T04:07:16;21.52;;;9.30;;
23632;SDS011;11993;48.748;9.166;2024-01-15T04:09:42;23.48;;;9.73;;
23632;SDS011;11993;48.748;9.166;2024-01-15T04:12:07;18.05;;;8.40;;
23632;SDS011;11993;48.748;9.166;2024-01-15T04:14:33;16.88;;;7.75;;
23632;SDS011;11993;48.748;9.166;2024-01-15T04:16:58;19.35;;;8.88;;
23632;SDS011;11993;48.748;9.166;2024-01-15T04:19:24;16.90;;;8.05;;
23632;SDS011;11993;48.748;9.166;2024-01-15T04:21:49;20.30;;;9.43;;
23632;SDS011;11993;48.748;9.166;2024-01-15T04:24:15;20.02;;;8.88;;
23632;SDS011;11993;48.748;9.166;2024-01-15T04:26:42;21.33;;;9.18;;
23632;SDS011;11993;48.748;9.166;2024-01-15T04:29:08;21.38;;;9.05;;
23632;SDS011;11993;48.748;9.166;2024-01-15T04:31:34;18.60;;;8.77;;
23632;SDS011;11993;48.748;9.166;2024-01-15T04:33:59;28.85;;;9.38;;
23632;SDS011;11993;48.748;9.166;2024-01-15T04:36:25;20.38;;;9.45;;
23632;SDS011;11993;48.748;9.166;2024-01-15T04:38:50;21.67;;;9.00;;
23632;SDS011;11993;48.748;9.166;2024-01-15T04:41:16;20.38;;;8.85;;
23632;SDS011;11993;48.748;9.166;2024-01-15T04:43:41;21.23;;;8.80;;
23632;SDS011;11993;48.748;9.166;2024-01-15T04:46:07;25.83;;;9.40;;
23632;SDS011;11993;48.748;9.166;2024-01-15T04:48:33;18.15;;;9.18;;
23632;SDS011;11993;48.748;9.166;2024-01-15T04:50:59;20.60;;;10.07;;
23632;SDS011;11993;48.748;9.166;2024-01-15T04:53:25;16.42;;;8.48;;
23632;SDS011;11993;48.748;9.166;2024-01-15T04:55:50;21.75;;;9.93;;
23632;SDS011;11993;48.748;9.166;2024-01-15T04:58:16;22.33;;;10.30;;
23632;SDS011;11993;48.748;9.166;2024-01-15T05:00:42;23.90;;;10.50;;
23632;SDS011;11993;48.748;9.166;2024-01-15T05:03:07;22.48;;;9.60;;
23632;SDS011;11993;48.748;9.166;2024-01-15T05:05:33;20.38;;;9.57;;
23632;SDS011;11993;48.748;9.166;2024-01-15T05:07:58;18.75;;;10.18;;
23632;SDS011;11993;48.748;9.166;2024-01-15T05:10:24;22.48;;;10.85;;
23632;SDS011;11993;48.748;9.166;2024-01-15T05:12:49;21.67;;;9.45;;
23632;SDS011;11993;48.748;9.166;2024-01-15T05:15:15;27.45;;;10.40;;
23632;SDS011;11993;48.748;9.166;2024-01-15T05:17:40;25.33;;;10.38;;
23632;SDS011;11993;48.748;9.166;2024-01-15T05:20:06;21.88;;;9.55;;
23632;SDS011;11993;48.748;9.166;2024-01-15T05:22:32;19.55;;;9.02;;
23632;SDS011;11993;48.748;9.166;2024-01-15T05:24:57;21.15;;;9.98;;
23632;SDS011;11993;48.748;9.166;2024-01-15T05:27:23;21.55;;;10.55;;
23632;SDS011;11993;48.748;9.166;2024-01-15T05:29:49;21.67;;;10.13;;
23632;SDS011;11993;48.748;9.166;2024-01-15T05:32:14;22.48;;;11.15;;
23632;SDS011;11993;48.748;9.166;2024-01-15T05:34:40;22.48;;;10.60;;
23632;SDS011;11993;48.748;9.166;2024-01-15T05:37:05;23.00;;;10.15;;
23632;SDS011;11993;48.748;9.166;2024-01-15T05:39:31;19.60;;;9.35;;
23632;SDS011;11993;48.748;9.166;2024-01-15T05:41:57;29.05;;;10.63;;
23632;SDS011;11993;48.748;9.166;2024-01-15T05:44:23;20.52;;;9.43;;
23632;SDS011;11993;48.748;9.166;2024-01-15T05:46:49;18.73;;;10.00;;
23632;SDS011;11993;48.748;9.166;2024-01-15T05:49:14;20.80;;;9.77;;
23632;SDS011;11993;48.748;9.166;2024-01-15T05:51:40;21.15;;;10.15;;
23632;SDS011;11993;48.748;9.166;2024-01-15T05:54:05;18.13;;;9.27;;
23632;SDS011;11993;48.748;9.166;2024-01-15T05:56:31;22.98;;;10.85;;
23632;SDS011;11993;48.748;9.166;2024-01-15T05:58:56;27.33;;;11.65;;
23632;SDS011;11993;48.748;9.166;2024-01-15T06:01:22;21.80;;;10.48;;
23632;SDS011;11993;48.748;9.166;2024-01-15T06:03:47;22.60;;;10.13;;
23632;SDS011;11993;48.748;9.166;2024-01-15T06:06:13;20.23;;;10.13;;
23632;SDS011;11993;48.748;9.166;2024-01-15T06:08:38;20.50;;;9.85;;
23632;SDS011;11993;48.748;9.166;2024-01-15T06:11:04;21.60;;;9.85;;
23632;SDS011;11993;48.748;9.166;2024-01-15T06:13:31;21.77;;;9.45;;
23632;SDS011;11993;48.748;9.166;2024-01-15T06:15:56;22.55;;;9.65;;
23632;SDS011;11993;48.748;9.166;2024-01-15T06:18:22;20.83;;;9.77;;
23632;SDS011;11993;48.748;9.166;2024-01-15T06:20:48;19.20;;;10.10;;
23632;SDS011;11993;48.748;9.166;2024-01-15T06:23:13;17.30;;;9.05;;
23632;SDS011;11993;48.748;9.166;2024-01-15T06:25:39;17.73;;;8.57;;
23632;SDS011;11993;48.748;9.166;2024-01-15T06:28:04;17.25;;;8.65;;
23632;SDS011;11993;48.748;9.166;2024-01-15T06:30:30;18.20;;;8.82;;
23632;SDS011;11993;48.748;9.166;2024-01-15T06:32:55;22.70;;;9.88;;
23632;SDS011;11993;48.748;9.166;2024-01-15T06:35:21;17.88;;;9.35;;
23632;SDS011;11993;48.748;9.166;2024-01-15T06:37:47;19.55;;;9.43;;
23632;SDS011;11993;48.748;9.166;2024-01-15T06:40:12;19.67;;;9.13;;
23632;SDS011;11993;48.748;9.166;2024-01-15T06:42:38;21.30;;;10.05;;
23632;SDS011;11993;48.748;9.166;2024-01-15T06:45:03;18.30;;;9.57;;
23632;SDS011;11993;48.748;9.166;2024-01-15T06:47:29;18.75;;;9.13;;
23632;SDS011;11993;48.748;9.166;2024-01-15T06:49:57;21.13;;;9.25;;
23632;SDS011;11993;48.748;9.166;2024-01-15T06:52:23;18.35;;;8.63;;
23632;SDS011;11993;48.748;9.166;2024-01-15T06:54:49;21.88;;;9.82;;
23632;SDS011;11993;48.748;9.166;2024-01-15T06:57:15;17.48;;;8.77;;
23632;SDS011;11993;48.748;9.166;2024-01-15T06:59:40;17.15;;;8.05;;
23632;SDS011;11993;48.748;9.166;2024-01-15T07:02:06;15.73;;;8.82;;
23632;SDS011;11993;48.748;9.166;2024-01-15T07:04:31;16.88;;;7.82;;
23632;SDS011;11993;48.748;9.166;2024-01-15T07:06:57;16.83;;;8.93;;
23632;SDS011;11993;48.748;9.166;2024-01-15T07:09:23;20.98;;;9.52;;
23632;SDS011;11993;48.748;9.166;2024-01-15T07:11:49;17.58;;;8.15;;
23632;SDS011;11993;48.748;9.166;2024-01-15T07:14:14;19.65;;;9.52;;
23632;SDS011;11993;48.748;9.166;2024-01-15T07:16:40;21.30;;;8.38;;
23632;SDS011;11993;48.748;9.166;2024-01-15T07:19:05;18.42;;;8.25;;
23632;SDS011;11993;48.748;9.166;2024-01-15T07:21:31;16.23;;;8.43;;
23632;SDS011;11993;48.748;9.166;2024-01-15T07:23:57;18.70;;;8.80;;
23632;SDS011;11993;48.748;9.166;2024-01-15T07:26:22;19.10;;;8.30;;
23632;SDS011;11993;48.748;9.166;2024-01-15T07:28:48;18.58;;;9.18;;
23632;SDS011;11993;48.748;9.166;2024-01-15T07:31:15;18.08;;;9.57;;
23632;SDS011;11993;48.748;9.166;2024-01-15T07:33:42;17.65;;;9.18;;
23632;SDS011;11993;48.748;9.166;2024-01-15T07:36:08;24.15;;;10.43;;
23632;SDS011;11993;48.748;9.166;2024-01-15T07:38:33;16.90;;;8.85;;
23632;SDS011;11993;48.748;9.166;2024-01-15T07:40:59;17.75;;;9.27;;
23632;SDS011;11993;48.748;9.166;2024-01-15T07:43:25;19.70;;;8.98;;
23632;SDS011;11993;48.748;9.166;2024-01-15T07:45:52;18.30;;;8.73;;
23632;SDS011;11993;48.748;9.166;2024-01-15T07:48:18;18.33;;;8.18;;
23632;SDS011;11993;48.748;9.166;2024-01-15T07:50:43;15.85;;;8.38;;
23632;SDS011;11993;48.748;9.166;2024-01-15T07:53:09;20.30;;;9.07;;
23632;SDS011;11993;48.748;9.166;2024-01-15T07:55:35;15.45;;;7.00;;
23632;SDS011;11993;48.748;9.166;2024-01-15T07:58:00;19.48;;;8.43;;
23632;SDS011;11993;48.748;9.166;2024-01-15T08:00:26;16.25;;;7.55;;
23632;SDS011;11993;48.748;9.166;2024-01-15T08:02:52;18.20;;;8.55;;
23632;SDS011;11993;48.748;9.166;2024-01-15T08:05:18;18.40;;;8.38;;
23632;SDS011;11993;48.748;9.166;2024-01-15T08:07:44;16.00;;;7.43;;
23632;SDS011;11993;48.748;9.166;2024-01-15T08:10:09;14.40;;;7.18;;
23632;SDS011;11993;48.748;9.166;2024-01-15T08:12:35;16.65;;;8.43;;
23632;SDS011;11993;48.748;9.166;2024-01-15T08:15:00;14.82;;;7.95;;
23632;SDS011;11993;48.748;9.166;2024-01-15T08:17:26;16.80;;;7.53;;
23632;SDS011;11993;48.748;9.166;2024-01-15T08:19:54;17.00;;;7.25;;
23632;SDS011;11993;48.748;9.166;2024-01-15T08:22:20;16.23;;;7.30;;
23632;SDS011;11993;48.748;9.166;2024-01-15T08:24:48;16.17;;;7.15;;
23632;SDS011;11993;48.748;9.166;2024-01-15T08:27:13;15.60;;;7.03;;
23632;SDS011;11993;48.748;9.166;2024-01-15T08:29:39;15.73;;;8.43;;
23632;SDS011;11993;48.748;9.166;2024-01-15T08:32:04;17.42;;;8.30;;
23632;SDS011;11993;48.748;9.166;2024-01-15T08:34:30;13.85;;;6.70;;
23632;SDS011;11993;48.748;9.166;2024-01-15T08:36:56;14.52;;;6.80;;
23632;SDS011;11993;48.748;9.166;2024-01-15T08:39:21;16.00;;;7.63;;
23632;SDS011;11993;48.748;9.166;2024-01-15T08:41:47;18.23;;;7.78;;
23632;SDS011;11993;48.748;9.166;2024-01-15T08:44:12;12.93;;;6.97;;
23632;SDS011;11993;48.748;9.166;2024-01-15T08:46:38;14.18;;;6.10;;
23632;SDS011;11993;48.748;9.166;2024-01-15T08:49:03;13.23;;;7.07;;
23632;SDS011;11993;48.748;9.166;2024-01-15T08:51:29;13.52;;;6.88;;
23632;SDS011;11993;48.748;9.166;2024-01-15T08:53:56;14.35;;;6.95;;
23632;SDS011;11993;48.748;9.166;2024-01-15T08:56:21;16.23;;;6.55;;
23632;SDS011;11993;48.748;9.166;2024-01-15T08:58:47;17.23;;;6.35;;
23632;SDS011;11993;48.748;9.166;2024-01-15T09:01:13;15.18;;;6.50;;
23632;SDS011;11993;48.748;9.166;2024-01-15T09:03:39;13.40;;;5.85;;
23632;SDS011;11993;48.748;9.166;2024-01-15T09:06:07;13.60;;;5.88;;
23632;SDS011;11993;48.748;9.166;2024-01-15T09:08:34;13.57;;;5.65;;
23632;SDS011;11993;48.748;9.166;2024-01-15T09:11:00;11.70;;;5.50;;
23632;SDS011;11993;48.748;9.166;2024-01-15T09:13:27;14.80;;;5.90;;
23632;SDS011;11993;48.748;9.166;2024-01-15T09:15:53;11.75;;;5.97;;
23632;SDS011;11993;48.748;9.166;2024-01-15T09:18:18;14.85;;;5.57;;
23632;SDS011;11993;48.748;9.166;2024-01-15T09:20:44;10.60;;;4.88;;
23632;SDS011;11993;48.748;9.166;2024-01-15T09:23:10;17.33;;;4.68;;
23632;SDS011;11993;48.748;9.166;2024-01-15T09:25:36;15.63;;;5.13;;
23632;SDS011;11993;48.748;9.166;2024-01-15T09:28:01;14.50;;;5.85;;
23632;SDS011;11993;48.748;9.166;2024-01-15T09:30:27;9.88;;;4.88;;
23632;SDS011;11993;48.748;9.166;2024-01-15T09:32:52;11.02;;;4.50;;
23632;SDS011;11993;48.748;9.166;2024-01-15T09:35:18;14.50;;;5.50;;
23632;SDS011;11993;48.748;9.166;2024-01-15T09:37:43;12.13;;;5.68;;
23632;SDS011;11993;48.748;9.166;2024-01-15T09:40:11;11.13;;;4.97;;
23632;SDS011;11993;48.748;9.166;2024-01-15T09:42:39;16.35;;;5.47;;
23632;SDS011;11993;48.748;9.166;2024-01-15T09:45:06;10.40;;;5.53;;
23632;SDS011;11993;48.748;9.166;2024-01-15T09:47:32;10.50;;;5.10;;
23632;SDS011;11993;48.748;9.166;2024-01-15T09:49:57;13.38;;;5.13;;
23632;SDS011;11993;48.748;9.166;2024-01-15T09:52:24;12.30;;;4.60;;
23632;SDS011;11993;48.748;9.166;2024-01-15T09:54:50;17.25;;;5.93;;
23632;SDS011;11993;48.748;9.166;2024-01-15T09:57:16;12.80;;;6.15;;
23632;SDS011;11993;48.748;9.166;2024-01-15T09:59:42;10.45;;;5.20;;
23632;SDS011;11993;48.748;9.166;2024-01-15T10:02:10;17.92;;;4.95;;
23632;SDS011;11993;48.748;9.166;2024-01-15T10:04:42;10.85;;;5.68;;
23632;SDS011;11993;48.748;9.166;2024-01-15T10:07:08;11.00;;;5.60;;
23632;SDS011;11993;48.748;9.166;2024-01-15T10:09:34;11.38;;;5.07;;
23632;SDS011;11993;48.748;9.166;2024-01-15T10:12:00;11.80;;;4.90;;
23632;SDS011;11993;48.748;9.166;2024-01-15T10:14:26;17.48;;;5.78;;
23632;SDS011;11993;48.748;9.166;2024-01-15T10:16:51;11.30;;;5.22;;
23632;SDS011;11993;48.748;9.166;2024-01-15T10:19:17;15.02;;;6.00;;
23632;SDS011;11993;48.748;9.166;2024-01-15T10:21:42;9.43;;;4.65;;
23632;SDS011;11993;48.748;9.166;2024-01-15T10:24:08;10.30;;;5.47;;
23632;SDS011;11993;48.748;9.166;2024-01-15T10:26:33;15.77;;;5.40;;
23632;SDS011;11993;48.748;9.166;2024-01-15T10:28:59;20.58;;;6.00;;
23632;SDS011;11993;48.748;9.166;2024-01-15T10:31:25;10.00;;;5.00;;
23632;SDS011;11993;48.748;9.166;2024-01-15T10:33:52;11.65;;;4.97;;
23632;SDS011;11993;48.748;9.166;2024-01-15T10:36:17;9.55;;;4.93;;
23632;SDS011;11993;48.748;9.166;2024-01-15T10:38:43;10.52;;;4.85;;
23632;SDS011;11993;48.748;9.166;2024-01-15T10:41:09;10.70;;;5.07;;
23632;SDS011;11993;48.748;9.166;2024-01-15T10:43:35;12.90;;;5.88;;
23632;SDS011;11993;48.748;9.166;2024-01-15T10:46:01;10.60;;;5.80;;
23632;SDS011;11993;48.748;9.166;2024-01-15T10:48:27;9.48;;;5.20;;
23632;SDS011;11993;48.748;9.166;2024-01-15T10:50:55;12.43;;;5.70;;
23632;SDS011;11993;48.748;9.166;2024-01-15T10:53:25;7.88;;;4.45;;
23632;SDS011;11993;48.748;9.166;2024-01-15T10:55:52;9.43;;;4.43;;
23632;SDS011;11993;48.748;9.166;2024-01-15T10:58:18;14.02;;;4.97;;
23632;SDS011;11993;48.748;9.166;2024-01-15T11:00:45;13.05;;;5.10;;
23632;SDS011;11993;48.748;9.166;2024-01-15T11:03:11;8.43;;;4.60;;
23632;SDS011;11993;48.748;9.166;2024-01-15T11:05:46;13.45;;;5.63;;
23632;SDS011;11993;48.748;9.166;2024-01-15T11:08:12;11.20;;;5.38;;
23632;SDS011;11993;48.748;9.166;2024-01-15T11:10:48;10.98;;;5.60;;
23632;SDS011;11993;48.748;9.166;2024-01-15T11:15:58;12.55;;;5.78;;
23632;SDS011;11993;48.748;9.166;2024-01-15T11:18:28;12.00;;;5.07;;
23632;SDS011;11993;48.748;9.166;2024-01-15T11:29:01;13.48;;;6.20;;
23632;SDS011;11993;48.748;9.166;2024-01-15T11:34:10;10.00;;;5.35;;
23632;SDS011;11993;48.748;9.166;2024-01-15T11:41:55;11.52;;;6.38;;
23632;SDS011;11993;48.748;9.166;2024-01-15T11:44:25;12.98;;;6.00;;
23632;SDS011;11993;48.748;9.166;2024-01-15T11:52:33;13.23;;;6.20;;
23632;SDS011;11993;48.748;9.166;2024-01-15T11:58:22;11.73;;;6.20;;
23632;SDS011;11993;48.748;9.166;2024-01-15T12:00:48;10.73;;;6.80;;
23632;SDS011;11993;48.748;9.166;2024-01-15T12:03:17;14.07;;;6.57;;
23632;SDS011;11993;48.748;9.166;2024-01-15T12:05:48;17.35;;;6.63;;
23632;SDS011;11993;48.748;9.166;2024-01-15T12:08:14;13.02;;;6.97;;
23632;SDS011;11993;48.748;9.166;2024-01-15T12:10:45;13.18;;;6.40;;
23632;SDS011;11993;48.748;9.166;2024-01-15T12:13:14;10.05;;;5.22;;
23632;SDS011;11993;48.748;9.166;2024-01-15T12:15:41;13.85;;;6.50;;
23632;SDS011;11993;48.748;9.166;2024-01-15T12:18:08;9.65;;;5.57;;
23632;SDS011;11993;48.748;9.166;2024-01-15T12:20:35;10.38;;;6.45;;
23632;SDS011;11993;48.748;9.166;2024-01-15T12:23:01;13.00;;;6.38;;
23632;SDS011;11993;48.748;9.166;2024-01-15T12:25:31;10.68;;;6.15;;
23632;SDS011;11993;48.748;9.166;2024-01-15T12:27:57;15.48;;;6.72;;
23632;SDS011;11993;48.748;9.166;2024-01-15T12:30:25;12.95;;;6.55;;
23632;SDS011;11993;48.748;9.166;2024-01-15T12:32:54;14.02;;;6.78;;
23632;SDS011;11993;48.748;9.166;2024-01-15T12:35:20;16.52;;;7.28;;
23632;SDS011;11993;48.748;9.166;2024-01-15T12:37:46;16.40;;;8.05;;
23632;SDS011;11993;48.748;9.166;2024-01-15T12:40:13;17.95;;;7.85;;
23632;SDS011;11993;48.748;9.166;2024-01-15T12:42:43;16.50;;;6.70;;
23632;SDS011;11993;48.748;9.166;2024-01-15T12:45:09;21.90;;;8.45;;
23632;SDS011;11993;48.748;9.166;2024-01-15T12:47:36;15.70;;;7.88;;
23632;SDS011;11993;48.748;9.166;2024-01-15T12:50:04;15.02;;;8.18;;
23632;SDS011;11993;48.748;9.166;2024-01-15T12:52:32;15.90;;;6.97;;
23632;SDS011;11993;48.748;9.166;2024-01-15T12:54:57;16.52;;;7.72;;
23632;SDS011;11993;48.748;9.166;2024-01-15T12:57:23;14.85;;;7.63;;
23632;SDS011;11993;48.748;9.166;2024-01-15T12:59:49;15.93;;;8.05;;
23632;SDS011;11993;48.748;9.166;2024-01-15T13:02:15;12.95;;;6.90;;
23632;SDS011;11993;48.748;9.166;2024-01-15T13:04:41;13.43;;;7.30;;
23632;SDS011;11993;48.748;9.166;2024-01-15T13:07:07;14.00;;;7.07;;
23632;SDS011;11993;48.748;9.166;2024-01-15T13:09:33;12.32;;;6.95;;
23632;SDS011;11993;48.748;9.166;2024-01-15T13:12:00;11.77;;;6.35;;
23632;SDS011;11993;48.748;9.166;2024-01-15T13:14:26;15.98;;;6.63;;
23632;SDS011;11993;48.748;9.166;2024-01-15T13:16:52;11.48;;;6.38;;
23632;SDS011;11993;48.748;9.166;2024-01-15T13:19:19;17.13;;;7.05;;
23632;SDS011;11993;48.748;9.166;2024-01-15T13:21:48;24.75;;;7.47;;
23632;SDS011;11993;48.748;9.166;2024-01-15T13:24:33;13.23;;;6.20;;
23632;SDS011;11993;48.748;9.166;2024-01-15T13:27:30;18.17;;;8.70;;
23632;SDS011;11993;48.748;9.166;2024-01-15T13:29:56;13.15;;;5.35;;
23632;SDS011;11993;48.748;9.166;2024-01-15T13:32:25;18.77;;;5.93;;
23632;SDS011;11993;48.748;9.166;2024-01-15T13:34:51;14.50;;;5.25;;
23632;SDS011;11993;48.748;9.166;2024-01-15T13:37:17;12.63;;;5.30;;
23632;SDS011;11993;48.748;9.166;2024-01-15T13:39:42;10.18;;;5.10;;
23632;SDS011;11993;48.748;9.166;2024-01-15T13:42:08;13.82;;;5.13;;
23632;SDS011;11993;48.748;9.166;2024-01-15T13:44:36;9.90;;;4.85;;
23632;SDS011;11993;48.748;9.166;2024-01-15T13:47:02;11.57;;;4.70;;
23632;SDS011;11993;48.748;9.166;2024-01-15T13:49:28;8.68;;;4.70;;
23632;SDS011;11993;48.748;9.166;2024-01-15T13:51:54;18.73;;;5.85;;
23632;SDS011;11993;48.748;9.166;2024-01-15T13:54:20;11.25;;;5.20;;
23632;SDS011;11993;48.748;9.166;2024-01-15T13:56:46;13.77;;;6.38;;
23632;SDS011;11993;48.748;9.166;2024-01-15T13:59:12;8.27;;;4.90;;
23632;SDS011;11993;48.748;9.166;2024-01-15T14:01:37;8.43;;;4.90;;
23632;SDS011;11993;48.748;9.166;2024-01-15T14:04:03;11.75;;;5.32;;
23632;SDS011;11993;48.748;9.166;2024-01-15T14:06:29;13.73;;;5.07;;
23632;SDS011;11993;48.748;9.166;2024-01-15T14:08:56;17.23;;;5.85;;
23632;SDS011;11993;48.748;9.166;2024-01-15T14:11:21;15.18;;;5.93;;
23632;SDS011;11993;48.748;9.166;2024-01-15T14:13:48;9.02;;;5.05;;
23632;SDS011;11993;48.748;9.166;2024-01-15T14:16:13;9.40;;;5.30;;
23632;SDS011;11993;48.748;9.166;2024-01-15T14:18:39;12.27;;;5.38;;
23632;SDS011;11993;48.748;9.166;2024-01-15T14:21:04;10.25;;;5.03;;
23632;SDS011;11993;48.748;9.166;2024-01-15T14:23:30;8.48;;;4.47;;
23632;SDS011;11993;48.748;9.166;2024-01-15T14:25:56;13.88;;;5.53;;
23632;SDS011;11993;48.748;9.166;2024-01-15T14:28:21;9.05;;;3.75;;
23632;SDS011;11993;48.748;9.166;2024-01-15T14:30:48;8.45;;;4.38;;
23632;SDS011;11993;48.748;9.166;2024-01-15T14:33:14;10.02;;;3.85;;
23632;SDS011;11993;48.748;9.166;2024-01-15T14:35:39;9.07;;;3.50;;
23632;SDS011;11993;48.748;9.166;2024-01-15T14:38:05;10.02;;;3.65;;
23632;SDS011;11993;48.748;9.166;2024-01-15T14:40:30;6.32;;;3.53;;
23632;SDS011;11993;48.748;9.166;2024-01-15T14:42:56;11.75;;;3.78;;
23632;SDS011;11993;48.748;9.166;2024-01-15T14:45:21;7.18;;;3.70;;
23632;SDS011;11993;48.748;9.166;2024-01-15T14:47:48;10.88;;;4.45;;
23632;SDS011;11993;48.748;9.166;2024-01-15T14:50:13;8.80;;;4.30;;
23632;SDS011;11993;48.748;9.166;2024-01-15T14:52:39;5.47;;;3.78;;
23632;SDS011;11993;48.748;9.166;2024-01-15T14:55:07;10.50;;;4.35;;